KSAT/SAT METAR and TAF weather

Enter ICAO airport designator
Station Type Date Time Source
KSAT METAR 2021/09/23 17:51 UTC NOAA

KSAT 231751Z 22004KT 10SM FEW250 27/04 A3012 RMK AO2 SLP184 T02720044 10283 20133 58014


Station Type Date Time Source
KSAT Decoded METAR 2021/09/23 17:51 UTC NOAA

SAN ANTONIO INTERNATIONAL AIRPORT , TX, United States (KSAT) 29-32N 098-28W 243M
Sep 23, 2021 - 01:51 PM EDT / 2021.09.23 1751 UTC
Wind: from the SW (220 degrees) at 5 MPH (4 KT):0
Visibility: 10 mile(s):0
Sky conditions: mostly clear
Temperature: 81.0 F (27.2 C)
Dew Point: 39.9 F (4.4 C)
Relative Humidity: 23%
Pressure (altimeter): 30.12 in. Hg (1019 hPa)
Pressure tendency: 0.04 inches (1.4 hPa) lower than three hours ago
ob: KSAT 231751Z 22004KT 10SM FEW250 27/04 A3012 RMK AO2 SLP184 T02720044 10283 20133 58014
cycle: 18

Station Type Date Time Source
KSAT TAF 2021/09/23 18:28 UTC NOAA

TAF KSAT 231726Z 2318/2424 11005KT P6SM FEW250

Example: see airport list